sensor_id;sensor_type;location;lat;lon;timestamp;pressure;altitude;pressure_sealevel;temperature;humidity
54329;BME280;40710;51.120;13.136;2024-02-14T00:00:02;99783.53;;;6.09;64.22
54329;BME280;40710;51.120;13.136;2024-02-14T00:02:27;99786.78;;;6.17;64.55
54329;BME280;40710;51.120;13.136;2024-02-14T00:04:55;99785.06;;;6.48;63.67
54329;BME280;40710;51.120;13.136;2024-02-14T00:07:20;99782.59;;;6.12;64.53
54329;BME280;40710;51.120;13.136;2024-02-14T00:09:45;99794.56;;;5.86;65.29
54329;BME280;40710;51.120;13.136;2024-02-14T00:12:10;99779.47;;;6.30;64.44
54329;BME280;40710;51.120;13.136;2024-02-14T00:14:35;99782.69;;;6.09;64.57
54329;BME280;40710;51.120;13.136;2024-02-14T00:17:00;99782.78;;;6.05;64.83
54329;BME280;40710;51.120;13.136;2024-02-14T00:19:24;99783.13;;;6.24;64.42
54329;BME280;40710;51.120;13.136;2024-02-14T00:21:49;99778.84;;;5.89;65.04
54329;BME280;40710;51.120;13.136;2024-02-14T00:24:14;99769.41;;;6.76;62.86
54329;BME280;40710;51.120;13.136;2024-02-14T00:26:40;99773.34;;;6.31;63.82
54329;BME280;40710;51.120;13.136;2024-02-14T00:29:05;99769.34;;;7.06;62.29
54329;BME280;40710;51.120;13.136;2024-02-14T00:31:29;99777.56;;;6.65;63.03
54329;BME280;40710;51.120;13.136;2024-02-14T00:33:55;99771.16;;;6.47;63.60
54329;BME280;40710;51.120;13.136;2024-02-14T00:36:19;99780.81;;;6.43;62.72
54329;BME280;40710;51.120;13.136;2024-02-14T00:38:44;99777.00;;;6.24;63.72
54329;BME280;40710;51.120;13.136;2024-02-14T00:41:10;99780.31;;;5.99;64.13
54329;BME280;40710;51.120;13.136;2024-02-14T00:43:35;99781.63;;;6.46;63.78
54329;BME280;40710;51.120;13.136;2024-02-14T00:46:00;99778.78;;;6.53;63.04
54329;BME280;40710;51.120;13.136;2024-02-14T00:48:25;99779.03;;;6.74;63.02
54329;BME280;40710;51.120;13.136;2024-02-14T00:50:49;99763.22;;;7.07;61.24
54329;BME280;40710;51.120;13.136;2024-02-14T00:53:14;99771.25;;;7.27;60.55
54329;BME280;40710;51.120;13.136;2024-02-14T00:55:38;99778.50;;;6.33;62.53
54329;BME280;40710;51.120;13.136;2024-02-14T00:58:03;99774.88;;;7.23;60.94
54329;BME280;40710;51.120;13.136;2024-02-14T01:00:27;99772.41;;;7.18;60.50
54329;BME280;40710;51.120;13.136;2024-02-14T01:02:52;99789.22;;;6.53;63.03
54329;BME280;40710;51.120;13.136;2024-02-14T01:05:17;99781.19;;;6.89;62.01
54329;BME280;40710;51.120;13.136;2024-02-14T01:07:41;99789.22;;;6.53;62.55
54329;BME280;40710;51.120;13.136;2024-02-14T01:10:06;99785.41;;;6.93;62.09
54329;BME280;40710;51.120;13.136;2024-02-14T01:12:30;99787.22;;;6.63;62.86
54329;BME280;40710;51.120;13.136;2024-02-14T01:14:56;99786.78;;;6.49;62.99
54329;BME280;40710;51.120;13.136;2024-02-14T01:17:20;99784.56;;;6.65;62.65
54329;BME280;40710;51.120;13.136;2024-02-14T01:19:45;99786.75;;;6.78;62.67
54329;BME280;40710;51.120;13.136;2024-02-14T01:22:10;99782.75;;;6.67;62.20
54329;BME280;40710;51.120;13.136;2024-02-14T01:24:34;99780.41;;;7.41;62.76
54329;BME280;40710;51.120;13.136;2024-02-14T01:26:59;99777.06;;;6.82;62.19
54329;BME280;40710;51.120;13.136;2024-02-14T01:29:23;99784.28;;;6.44;63.10
54329;BME280;40710;51.120;13.136;2024-02-14T01:31:48;99769.25;;;6.80;62.16
54329;BME280;40710;51.120;13.136;2024-02-14T01:34:14;99781.66;;;6.74;62.79
54329;BME280;40710;51.120;13.136;2024-02-14T01:36:39;99776.38;;;7.04;61.97
54329;BME280;40710;51.120;13.136;2024-02-14T01:39:05;99768.88;;;6.65;62.39
54329;BME280;40710;51.120;13.136;2024-02-14T01:41:35;99772.59;;;6.57;63.11
54329;BME280;40710;51.120;13.136;2024-02-14T01:43:59;99760.81;;;7.26;61.06
54329;BME280;40710;51.120;13.136;2024-02-14T01:46:24;99767.38;;;6.57;62.21
54329;BME280;40710;51.120;13.136;2024-02-14T01:48:48;99753.53;;;7.35;61.01
54329;BME280;40710;51.120;13.136;2024-02-14T01:51:19;99750.75;;;7.42;60.13
54329;BME280;40710;51.120;13.136;2024-02-14T01:53:44;99755.97;;;7.42;60.91
54329;BME280;40710;51.120;13.136;2024-02-14T01:56:10;99746.72;;;7.31;60.89
54329;BME280;40710;51.120;13.136;2024-02-14T01:58:35;99747.00;;;6.95;60.84
54329;BME280;40710;51.120;13.136;2024-02-14T02:01:01;99748.59;;;7.28;61.71
54329;BME280;40710;51.120;13.136;2024-02-14T02:03:27;99749.78;;;6.91;61.47
54329;BME280;40710;51.120;13.136;2024-02-14T02:05:53;99748.72;;;7.23;62.01
54329;BME280;40710;51.120;13.136;2024-02-14T02:08:18;99738.41;;;7.18;60.95
54329;BME280;40710;51.120;13.136;2024-02-14T02:10:42;99740.94;;;6.95;61.99
54329;BME280;40710;51.120;13.136;2024-02-14T02:13:08;99747.88;;;6.68;62.68
54329;BME280;40710;51.120;13.136;2024-02-14T02:15:33;99742.50;;;6.44;63.46
54329;BME280;40710;51.120;13.136;2024-02-14T02:17:58;99751.06;;;6.49;63.54
54329;BME280;40710;51.120;13.136;2024-02-14T02:20:23;99751.38;;;6.68;63.33
54329;BME280;40710;51.120;13.136;2024-02-14T02:22:48;99728.84;;;7.44;60.67
54329;BME280;40710;51.120;13.136;2024-02-14T02:25:13;99730.19;;;7.04;61.42
54329;BME280;40710;51.120;13.136;2024-02-14T02:27:37;99725.72;;;7.08;61.17
54329;BME280;40710;51.120;13.136;2024-02-14T02:30:02;99723.03;;;7.61;60.68
54329;BME280;40710;51.120;13.136;2024-02-14T02:32:28;99728.09;;;7.41;60.12
54329;BME280;40710;51.120;13.136;2024-02-14T02:34:53;99722.78;;;7.17;60.78
54329;BME280;40710;51.120;13.136;2024-02-14T02:37:18;99732.41;;;6.90;61.90
54329;BME280;40710;51.120;13.136;2024-02-14T02:39:43;99725.41;;;7.17;61.11
54329;BME280;40710;51.120;13.136;2024-02-14T02:42:07;99721.47;;;7.55;60.19
54329;BME280;40710;51.120;13.136;2024-02-14T02:44:34;99715.97;;;7.13;61.13
54329;BME280;40710;51.120;13.136;2024-02-14T02:47:02;99708.84;;;7.68;60.66
54329;BME280;40710;51.120;13.136;2024-02-14T02:49:26;99715.63;;;7.49;60.49
54329;BME280;40710;51.120;13.136;2024-02-14T02:51:51;99713.66;;;7.04;60.83
54329;BME280;40710;51.120;13.136;2024-02-14T02:54:16;99711.38;;;7.19;60.78
54329;BME280;40710;51.120;13.136;2024-02-14T02:56:41;99719.13;;;7.23;60.43
54329;BME280;40710;51.120;13.136;2024-02-14T02:59:06;99713.66;;;7.04;61.22
54329;BME280;40710;51.120;13.136;2024-02-14T03:01:37;99725.16;;;6.98;61.80
54329;BME280;40710;51.120;13.136;2024-02-14T03:04:02;99709.13;;;7.09;61.26
54329;BME280;40710;51.120;13.136;2024-02-14T03:06:26;99710.31;;;7.25;60.85
54329;BME280;40710;51.120;13.136;2024-02-14T03:08:51;99706.94;;;7.22;60.82
54329;BME280;40710;51.120;13.136;2024-02-14T03:11:16;99705.19;;;7.22;60.68
54329;BME280;40710;51.120;13.136;2024-02-14T03:13:41;99700.97;;;7.18;60.90
54329;BME280;40710;51.120;13.136;2024-02-14T03:16:05;99691.06;;;7.28;60.58
54329;BME280;40710;51.120;13.136;2024-02-14T03:18:30;99696.16;;;7.81;59.49
54329;BME280;40710;51.120;13.136;2024-02-14T03:20:54;99697.84;;;7.33;60.39
54329;BME280;40710;51.120;13.136;2024-02-14T03:23:19;99702.06;;;7.37;60.42
54329;BME280;40710;51.120;13.136;2024-02-14T03:25:44;99695.19;;;7.35;60.15
54329;BME280;40710;51.120;13.136;2024-02-14T03:28:08;99696.53;;;7.20;61.05
54329;BME280;40710;51.120;13.136;2024-02-14T03:30:33;99698.88;;;7.29;60.56
54329;BME280;40710;51.120;13.136;2024-02-14T03:32:58;99698.63;;;7.35;61.03
54329;BME280;40710;51.120;13.136;2024-02-14T03:35:22;99691.16;;;6.99;60.86
54329;BME280;40710;51.120;13.136;2024-02-14T03:37:49;99697.03;;;7.56;60.56
54329;BME280;40710;51.120;13.136;2024-02-14T03:40:16;99700.13;;;7.17;61.32
54329;BME280;40710;51.120;13.136;2024-02-14T03:42:41;99684.56;;;7.65;60.64
54329;BME280;40710;51.120;13.136;2024-02-14T03:45:08;99692.81;;;7.27;60.72
54329;BME280;40710;51.120;13.136;2024-02-14T03:47:33;99693.03;;;7.21;61.37
54329;BME280;40710;51.120;13.136;2024-02-14T03:49:58;99695.38;;;7.04;61.52
54329;BME280;40710;51.120;13.136;2024-02-14T03:52:22;99687.00;;;7.19;60.94
54329;BME280;40710;51.120;13.136;2024-02-14T03:54:48;99696.09;;;6.82;62.34
54329;BME280;40710;51.120;13.136;2024-02-14T03:57:12;99698.06;;;6.74;62.52
54329;BME280;40710;51.120;13.136;2024-02-14T03:59:37;99689.44;;;6.98;61.54
54329;BME280;40710;51.120;13.136;2024-02-14T04:02:03;99688.38;;;7.04;61.70
54329;BME280;40710;51.120;13.136;2024-02-14T04:04:28;99677.91;;;7.04;61.34
54329;BME280;40710;51.120;13.136;2024-02-14T04:06:53;99683.91;;;7.08;61.91
54329;BME280;40710;51.120;13.136;2024-02-14T04:09:17;99674.47;;;7.29;61.12
54329;BME280;40710;51.120;13.136;2024-02-14T04:11:42;99671.59;;;7.36;60.85
54329;BME280;40710;51.120;13.136;2024-02-14T04:14:06;99680.47;;;7.06;61.14
54329;BME280;40710;51.120;13.136;2024-02-14T04:16:31;99670.81;;;7.08;60.87
54329;BME280;40710;51.120;13.136;2024-02-14T04:18:56;99678.28;;;6.93;61.65
54329;BME280;40710;51.120;13.136;2024-02-14T04:21:20;99675.94;;;6.86;61.72
54329;BME280;40710;51.120;13.136;2024-02-14T04:23:45;99682.44;;;6.99;61.38
54329;BME280;40710;51.120;13.136;2024-02-14T04:26:09;99688.91;;;6.87;61.48
54329;BME280;40710;51.120;13.136;2024-02-14T04:28:34;99683.59;;;6.90;61.33
54329;BME280;40710;51.120;13.136;2024-02-14T04:30:58;99684.50;;;7.16;61.32
54329;BME280;40710;51.120;13.136;2024-02-14T04:33:23;99678.13;;;7.73;60.77
54329;BME280;40710;51.120;13.136;2024-02-14T04:35:48;99678.28;;;7.69;60.60
54329;BME280;40710;51.120;13.136;2024-02-14T04:38:12;99672.34;;;7.89;58.93
54329;BME280;40710;51.120;13.136;2024-02-14T04:40:37;99665.88;;;8.21;58.20
54329;BME280;40710;51.120;13.136;2024-02-14T04:43:02;99669.84;;;7.86;58.44
54329;BME280;40710;51.120;13.136;2024-02-14T04:45:27;99668.41;;;7.52;59.13
54329;BME280;40710;51.120;13.136;2024-02-14T04:47:51;99658.66;;;8.04;58.23
54329;BME280;40710;51.120;13.136;2024-02-14T04:50:16;99663.38;;;7.71;58.99
54329;BME280;40710;51.120;13.136;2024-02-14T04:52:40;99657.06;;;8.00;58.16
54329;BME280;40710;51.120;13.136;2024-02-14T04:55:05;99658.13;;;7.96;57.89
54329;BME280;40710;51.120;13.136;2024-02-14T04:57:30;99663.34;;;7.96;57.72
54329;BME280;40710;51.120;13.136;2024-02-14T04:59:55;99657.16;;;7.50;58.15
54329;BME280;40710;51.120;13.136;2024-02-14T05:02:19;99657.59;;;7.37;59.06
54329;BME280;40710;51.120;13.136;2024-02-14T05:04:44;99646.25;;;7.62;58.70
54329;BME280;40710;51.120;13.136;2024-02-14T05:07:09;99655.47;;;7.49;59.05
54329;BME280;40710;51.120;13.136;2024-02-14T05:09:33;99652.44;;;7.36;58.87
54329;BME280;40710;51.120;13.136;2024-02-14T05:11:58;99645.31;;;7.39;58.45
54329;BME280;40710;51.120;13.136;2024-02-14T05:14:22;99647.75;;;7.46;58.75
54329;BME280;40710;51.120;13.136;2024-02-14T05:16:47;99644.72;;;7.56;58.38
54329;BME280;40710;51.120;13.136;2024-02-14T05:19:12;99641.75;;;7.17;59.04
54329;BME280;40710;51.120;13.136;2024-02-14T05:21:37;99635.69;;;7.65;58.39
54329;BME280;40710;51.120;13.136;2024-02-14T05:24:02;99640.06;;;8.34;57.85
54329;BME280;40710;51.120;13.136;2024-02-14T05:26:27;99622.47;;;8.16;56.71
54329;BME280;40710;51.120;13.136;2024-02-14T05:28:52;99627.63;;;7.71;57.70
54329;BME280;40710;51.120;13.136;2024-02-14T05:31:17;99632.38;;;7.36;58.17
54329;BME280;40710;51.120;13.136;2024-02-14T05:33:41;99625.88;;;7.47;58.41
54329;BME280;40710;51.120;13.136;2024-02-14T05:36:07;99637.63;;;7.36;58.22
54329;BME280;40710;51.120;13.136;2024-02-14T05:38:32;99623.34;;;7.69;58.07
54329;BME280;40710;51.120;13.136;2024-02-14T05:40:58;99624.16;;;7.71;57.45
54329;BME280;40710;51.120;13.136;2024-02-14T05:43:22;99617.94;;;7.97;56.01
54329;BME280;40710;51.120;13.136;2024-02-14T05:45:47;99628.09;;;7.34;57.74
54329;BME280;40710;51.120;13.136;2024-02-14T05:48:11;99619.56;;;7.54;57.36
54329;BME280;40710;51.120;13.136;2024-02-14T05:50:36;99627.56;;;7.73;58.05
54329;BME280;40710;51.120;13.136;2024-02-14T05:53:00;99615.00;;;7.83;56.34
54329;BME280;40710;51.120;13.136;2024-02-14T05:55:25;99620.81;;;7.91;56.89
54329;BME280;40710;51.120;13.136;2024-02-14T05:57:50;99605.22;;;7.88;56.41
54329;BME280;40710;51.120;13.136;2024-02-14T06:00:16;99613.16;;;7.85;56.42
54329;BME280;40710;51.120;13.136;2024-02-14T06:02:43;99601.88;;;8.06;56.42
54329;BME280;40710;51.120;13.136;2024-02-14T06:05:07;99616.97;;;7.76;56.65
54329;BME280;40710;51.120;13.136;2024-02-14T06:07:36;99605.44;;;7.82;56.28
54329;BME280;40710;51.120;13.136;2024-02-14T06:10:01;99618.06;;;7.70;56.86
54329;BME280;40710;51.120;13.136;2024-02-14T06:12:25;99607.34;;;8.00;56.00
54329;BME280;40710;51.120;13.136;2024-02-14T06:14:50;99619.22;;;7.63;56.82
54329;BME280;40710;51.120;13.136;2024-02-14T06:17:14;99629.78;;;7.60;56.59
54329;BME280;40710;51.120;13.136;2024-02-14T06:19:39;99620.84;;;8.11;55.92
54329;BME280;40710;51.120;13.136;2024-02-14T06:22:03;99606.06;;;7.88;56.07
54329;BME280;40710;51.120;13.136;2024-02-14T06:24:28;99609.19;;;7.98;55.89
54329;BME280;40710;51.120;13.136;2024-02-14T06:26:52;99610.38;;;8.11;55.68
54329;BME280;40710;51.120;13.136;2024-02-14T06:29:17;99607.00;;;8.09;56.03
54329;BME280;40710;51.120;13.136;2024-02-14T06:31:42;99603.22;;;8.17;55.60
54329;BME280;40710;51.120;13.136;2024-02-14T06:34:06;99596.53;;;8.54;54.71
54329;BME280;40710;51.120;13.136;2024-02-14T06:36:32;99611.56;;;8.26;55.04
54329;BME280;40710;51.120;13.136;2024-02-14T06:38:57;99607.19;;;8.27;55.35
54329;BME280;40710;51.120;13.136;2024-02-14T06:41:21;99602.47;;;8.13;55.84
54329;BME280;40710;51.120;13.136;2024-02-14T06:43:46;99602.88;;;8.26;55.38
54329;BME280;40710;51.120;13.136;2024-02-14T06:46:11;99584.44;;;8.92;53.99
54329;BME280;40710;51.120;13.136;2024-02-14T06:48:36;99591.28;;;8.54;54.83
54329;BME280;40710;51.120;13.136;2024-02-14T06:51:00;99590.00;;;8.64;55.00
54329;BME280;40710;51.120;13.136;2024-02-14T06:53:25;99587.19;;;8.68;54.74
54329;BME280;40710;51.120;13.136;2024-02-14T06:55:49;99584.63;;;9.08;54.44
54329;BME280;40710;51.120;13.136;2024-02-14T06:58:14;99601.69;;;8.98;54.30
54329;BME280;40710;51.120;13.136;2024-02-14T07:00:38;99602.47;;;9.00;54.60
54329;BME280;40710;51.120;13.136;2024-02-14T07:03:03;99604.63;;;8.90;54.22
54329;BME280;40710;51.120;13.136;2024-02-14T07:05:28;99588.88;;;9.31;53.76
54329;BME280;40710;51.120;13.136;2024-02-14T07:07:53;99586.75;;;9.39;53.80
54329;BME280;40710;51.120;13.136;2024-02-14T07:10:18;99596.28;;;9.42;53.66
54329;BME280;40710;51.120;13.136;2024-02-14T07:12:42;99589.53;;;9.36;53.20
54329;BME280;40710;51.120;13.136;2024-02-14T07:15:07;99596.81;;;8.88;54.26
54329;BME280;40710;51.120;13.136;2024-02-14T07:17:32;99595.78;;;9.13;53.97
54329;BME280;40710;51.120;13.136;2024-02-14T07:19:57;99594.78;;;9.55;53.31
54329;BME280;40710;51.120;13.136;2024-02-14T07:22:21;99591.31;;;9.55;53.42
54329;BME280;40710;51.120;13.136;2024-02-14T07:24:46;99578.91;;;9.58;53.56
54329;BME280;40710;51.120;13.136;2024-02-14T07:27:12;99597.72;;;9.28;53.62
54329;BME280;40710;51.120;13.136;2024-02-14T07:29:37;99586.44;;;9.47;53.99
54329;BME280;40710;51.120;13.136;2024-02-14T07:32:02;99586.47;;;9.26;54.11
54329;BME280;40710;51.120;13.136;2024-02-14T07:34:26;99564.63;;;10.21;52.93
54329;BME280;40710;51.120;13.136;2024-02-14T07:36:51;99576.88;;;9.84;52.92
54329;BME280;40710;51.120;13.136;2024-02-14T07:39:15;99581.91;;;9.70;53.26
54329;BME280;40710;51.120;13.136;2024-02-14T07:41:40;99573.19;;;10.44;52.56
54329;BME280;40710;51.120;13.136;2024-02-14T07:44:05;99577.00;;;10.55;51.78
54329;BME280;40710;51.120;13.136;2024-02-14T07:46:30;99575.50;;;10.13;54.00
54329;BME280;40710;51.120;13.136;2024-02-14T07:48:55;99584.03;;;9.99;54.26
54329;BME280;40710;51.120;13.136;2024-02-14T07:51:22;99571.28;;;10.28;53.65
54329;BME280;40710;51.120;13.136;2024-02-14T07:53:46;99571.53;;;10.05;54.10
54329;BME280;40710;51.120;13.136;2024-02-14T07:56:11;99578.69;;;10.01;54.47
54329;BME280;40710;51.120;13.136;2024-02-14T07:58:35;99575.28;;;9.99;53.50
54329;BME280;40710;51.120;13.136;2024-02-14T08:01:00;99571.34;;;9.52;54.57
54329;BME280;40710;51.120;13.136;2024-02-14T08:03:25;99575.25;;;10.18;54.14
54329;BME280;40710;51.120;13.136;2024-02-14T08:05:49;99560.19;;;10.21;53.83
54329;BME280;40710;51.120;13.136;2024-02-14T08:08:14;99559.41;;;10.38;53.58
54329;BME280;40710;51.120;13.136;2024-02-14T08:10:38;99555.41;;;10.12;53.55
54329;BME280;40710;51.120;13.136;2024-02-14T08:13:03;99548.31;;;9.95;53.46
54329;BME280;40710;51.120;13.136;2024-02-14T08:15:28;99558.25;;;10.44;52.83
54329;BME280;40710;51.120;13.136;2024-02-14T08:17:53;99554.66;;;10.64;52.94
54329;BME280;40710;51.120;13.136;2024-02-14T08:20:20;99563.28;;;10.12;53.57
54329;BME280;40710;51.120;13.136;2024-02-14T08:22:45;99554.59;;;10.99;52.94
54329;BME280;40710;51.120;13.136;2024-02-14T08:25:09;99562.91;;;10.20;53.67
54329;BME280;40710;51.120;13.136;2024-02-14T08:27:34;99563.72;;;10.03;54.76
54329;BME280;40710;51.120;13.136;2024-02-14T08:29:58;99552.19;;;10.61;53.14
54329;BME280;40710;51.120;13.136;2024-02-14T08:32:23;99550.44;;;10.95;52.01
54329;BME280;40710;51.120;13.136;2024-02-14T08:34:48;99562.69;;;10.44;53.94
54329;BME280;40710;51.120;13.136;2024-02-14T08:37:12;99565.16;;;10.47;54.29
54329;BME280;40710;51.120;13.136;2024-02-14T08:39:37;99557.84;;;11.04;53.18
54329;BME280;40710;51.120;13.136;2024-02-14T08:42:02;99566.72;;;11.52;51.71
54329;BME280;40710;51.120;13.136;2024-02-14T08:44:31;99584.84;;;10.19;54.43
54329;BME280;40710;51.120;13.136;2024-02-14T08:46:56;99562.44;;;11.34;52.87
54329;BME280;40710;51.120;13.136;2024-02-14T08:49:20;99574.56;;;10.33;54.52
54329;BME280;40710;51.120;13.136;2024-02-14T08:51:45;99578.59;;;10.58;55.08
54329;BME280;40710;51.120;13.136;2024-02-14T08:54:10;99566.22;;;10.95;54.09
54329;BME280;40710;51.120;13.136;2024-02-14T08:56:36;99564.97;;;11.85;51.85
54329;BME280;40710;51.120;13.136;2024-02-14T08:59:01;99568.53;;;11.68;52.09
54329;BME280;40710;51.120;13.136;2024-02-14T09:01:26;99582.50;;;11.37;53.17
54329;BME280;40710;51.120;13.136;2024-02-14T09:03:51;99573.75;;;11.36;52.73
54329;BME280;40710;51.120;13.136;2024-02-14T09:06:16;99594.22;;;10.96;54.61
54329;BME280;40710;51.120;13.136;2024-02-14T09:08:44;99596.09;;;10.76;54.94
54329;BME280;40710;51.120;13.136;2024-02-14T09:11:09;99582.22;;;11.08;55.30
54329;BME280;40710;51.120;13.136;2024-02-14T09:13:33;99603.78;;;10.62;55.27
54329;BME280;40710;51.120;13.136;2024-02-14T09:15:58;99579.59;;;11.41;54.40
54329;BME280;40710;51.120;13.136;2024-02-14T09:18:23;99581.47;;;10.88;54.78
54329;BME280;40710;51.120;13.136;2024-02-14T09:20:49;99591.97;;;10.88;55.61
54329;BME280;40710;51.120;13.136;2024-02-14T09:23:14;99579.91;;;11.68;53.94
54329;BME280;40710;51.120;13.136;2024-02-14T09:25:43;99599.84;;;10.53;55.91
54329;BME280;40710;51.120;13.136;2024-02-14T09:28:08;99588.75;;;11.34;54.62
54329;BME280;40710;51.120;13.136;2024-02-14T09:30:39;99587.00;;;11.34;54.88
54329;BME280;40710;51.120;13.136;2024-02-14T09:33:04;99595.31;;;10.92;55.67
54329;BME280;40710;51.120;13.136;2024-02-14T09:35:29;99588.16;;;11.11;55.47
54329;BME280;40710;51.120;13.136;2024-02-14T09:37:54;99601.34;;;10.94;55.93
54329;BME280;40710;51.120;13.136;2024-02-14T09:40:18;99610.78;;;10.81;56.48
54329;BME280;40710;51.120;13.136;2024-02-14T09:42:54;99598.81;;;11.43;55.21
54329;BME280;40710;51.120;13.136;2024-02-14T09:45:20;99628.31;;;10.63;57.41
54329;BME280;40710;51.120;13.136;2024-02-14T09:47:45;99635.41;;;10.60;57.56
54329;BME280;40710;51.120;13.136;2024-02-14T09:50:12;99609.06;;;10.97;57.05
54329;BME280;40710;51.120;13.136;2024-02-14T09:52:38;99603.09;;;11.28;56.59
54329;BME280;40710;51.120;13.136;2024-02-14T09:55:03;99611.22;;;11.24;56.24
54329;BME280;40710;51.120;13.136;2024-02-14T09:57:29;99603.28;;;10.55;58.27
54329;BME280;40710;51.120;13.136;2024-02-14T09:59:56;99602.41;;;10.90;57.40
54329;BME280;40710;51.120;13.136;2024-02-14T10:02:21;99597.44;;;11.36;56.30
54329;BME280;40710;51.120;13.136;2024-02-14T10:04:46;99607.53;;;11.10;57.30
54329;BME280;40710;51.120;13.136;2024-02-14T10:07:10;99614.50;;;10.76;58.18
54329;BME280;40710;51.120;13.136;2024-02-14T10:09:42;99602.25;;;11.28;57.69
54329;BME280;40710;51.120;13.136;2024-02-14T10:12:06;99606.28;;;11.18;58.05
54329;BME280;40710;51.120;13.136;2024-02-14T10:14:33;99609.31;;;10.92;57.70
54329;BME280;40710;51.120;13.136;2024-02-14T10:16:58;99616.31;;;11.27;58.39
54329;BME280;40710;51.120;13.136;2024-02-14T10:19:22;99612.31;;;11.02;58.76
54329;BME280;40710;51.120;13.136;2024-02-14T10:22:01;99602.88;;;11.15;58.56
54329;BME280;40710;51.120;13.136;2024-02-14T10:24:29;99606.63;;;10.94;60.09
54329;BME280;40710;51.120;13.136;2024-02-14T10:26:55;99633.13;;;10.72;60.67
54329;BME280;40710;51.120;13.136;2024-02-14T10:29:22;99598.72;;;10.94;60.55
54329;BME280;40710;51.120;13.136;2024-02-14T10:31:46;99604.78;;;11.29;60.33
54329;BME280;40710;51.120;13.136;2024-02-14T10:34:12;99598.19;;;11.38;59.33
54329;BME280;40710;51.120;13.136;2024-02-14T10:36:36;99584.94;;;11.73;58.17
54329;BME280;40710;51.120;13.136;2024-02-14T10:39:05;99590.28;;;10.87;59.11
54329;BME280;40710;51.120;13.136;2024-02-14T10:41:33;99600.97;;;11.68;57.95
54329;BME280;40710;51.120;13.136;2024-02-14T10:43:59;99585.66;;;12.08;58.04
54329;BME280;40710;51.120;13.136;2024-02-14T10:46:25;99571.50;;;12.41;56.30
54329;BME280;40710;51.120;13.136;2024-02-14T10:48:58;99579.47;;;12.56;55.34
54329;BME280;40710;51.120;13.136;2024-02-14T10:51:30;99556.63;;;14.82;50.04
54329;BME280;40710;51.120;13.136;2024-02-14T10:53:56;99568.59;;;14.20;50.68
54329;BME280;40710;51.120;13.136;2024-02-14T10:56:28;99570.63;;;15.22;49.17
54329;BME280;40710;51.120;13.136;2024-02-14T10:58:56;99556.72;;;14.93;50.13
54329;BME280;40710;51.120;13.136;2024-02-14T11:01:25;99556.38;;;14.72;50.00
54329;BME280;40710;51.120;13.136;2024-02-14T11:03:51;99561.34;;;15.66;47.81
54329;BME280;40710;51.120;13.136;2024-02-14T11:06:16;99555.75;;;15.58;48.05
54329;BME280;40710;51.120;13.136;2024-02-14T11:08:42;99564.94;;;14.35;51.29
54329;BME280;40710;51.120;13.136;2024-02-14T11:11:06;99565.13;;;15.25;49.89
54329;BME280;40710;51.120;13.136;2024-02-14T11:13:31;99563.22;;;15.27;48.32
54329;BME280;40710;51.120;13.136;2024-02-14T11:15:57;99566.56;;;14.51;51.15
54329;BME280;40710;51.120;13.136;2024-02-14T11:18:28;99577.34;;;14.88;50.33
54329;BME280;40710;51.120;13.136;2024-02-14T11:20:57;99545.03;;;16.34;47.04
54329;BME280;40710;51.120;13.136;2024-02-14T11:23:24;99569.53;;;14.19;50.76
54329;BME280;40710;51.120;13.136;2024-02-14T11:25:51;99578.78;;;13.56;53.13
54329;BME280;40710;51.120;13.136;2024-02-14T11:28:17;99592.75;;;12.99;54.98
54329;BME280;40710;51.120;13.136;2024-02-14T11:30:44;99581.69;;;13.80;53.38
54329;BME280;40710;51.120;13.136;2024-02-14T11:33:20;99590.97;;;12.85;55.86
54329;BME280;40710;51.120;13.136;2024-02-14T11:35:47;99581.06;;;13.33;54.48
54329;BME280;40710;51.120;13.136;2024-02-14T11:38:14;99580.75;;;13.67;54.23
54329;BME280;40710;51.120;13.136;2024-02-14T11:40:39;99573.28;;;13.88;53.95
54329;BME280;40710;51.120;13.136;2024-02-14T11:43:10;99561.28;;;13.96;53.21
54329;BME280;40710;51.120;13.136;2024-02-14T11:45:34;99600.38;;;12.89;55.02
54329;BME280;40710;51.120;13.136;2024-02-14T11:48:00;99569.13;;;13.98;53.60
54329;BME280;40710;51.120;13.136;2024-02-14T11:50:25;99566.09;;;13.90;53.22
54329;BME280;40710;51.120;13.136;2024-02-14T11:52:49;99568.94;;;14.01;53.75
54329;BME280;40710;51.120;13.136;2024-02-14T11:55:17;99563.13;;;14.63;51.98
54329;BME280;40710;51.120;13.136;2024-02-14T11:57:41;99580.03;;;13.50;54.55
54329;BME280;40710;51.120;13.136;2024-02-14T12:00:07;99569.72;;;13.74;54.06
54329;BME280;40710;51.120;13.136;2024-02-14T12:02:31;99565.09;;;13.64;54.74
54329;BME280;40710;51.120;13.136;2024-02-14T12:04:56;99569.19;;;14.38;53.23
54329;BME280;40710;51.120;13.136;2024-02-14T12:07:22;99561.03;;;13.87;54.33
54329;BME280;40710;51.120;13.136;2024-02-14T12:09:47;99565.13;;;14.05;53.94
54329;BME280;40710;51.120;13.136;2024-02-14T12:12:13;99578.78;;;13.27;55.58
54329;BME280;40710;51.120;13.136;2024-02-14T12:14:37;99578.78;;;13.70;55.04
54329;BME280;40710;51.120;13.136;2024-02-14T12:17:02;99576.22;;;13.69;54.71
54329;BME280;40710;51.120;13.136;2024-02-14T12:19:27;99586.34;;;13.48;55.49
54329;BME280;40710;51.120;13.136;2024-02-14T12:21:51;99578.75;;;13.85;54.89
54329;BME280;40710;51.120;13.136;2024-02-14T12:24:16;99584.66;;;13.61;55.00
54329;BME280;40710;51.120;13.136;2024-02-14T12:26:42;99570.78;;;14.13;53.66
54329;BME280;40710;51.120;13.136;2024-02-14T12:29:10;99586.13;;;14.48;53.70
54329;BME280;40710;51.120;13.136;2024-02-14T12:31:35;99589.75;;;13.64;54.14
54329;BME280;40710;51.120;13.136;2024-02-14T12:34:03;99574.13;;;13.88;54.99
54329;BME280;40710;51.120;13.136;2024-02-14T12:36:29;99578.53;;;14.02;55.09
54329;BME280;40710;51.120;13.136;2024-02-14T12:38:54;99573.28;;;14.29;53.97
54329;BME280;40710;51.120;13.136;2024-02-14T12:41:19;99572.38;;;14.43;54.09
54329;BME280;40710;51.120;13.136;2024-02-14T12:43:44;99569.28;;;14.36;53.47